Time;durP1;ratioP1;P1;durP2;ratioP2;P2;SDS_P1;SDS_P2;PMS_P1;PMS_P2;Temp;Humidity;BMP_temperature;BMP_pressure;BME280_temperature;BME280_humidity;BME280_pressure;Samples;Min_cycle;Max_cycle;Signal;HPM_P1;HPM_P2
2021/12/04 00:00:22;;;;;;;7.65;6.85;;;5.50;99.90;;;;;;5055874;28;20025;-76
2021/12/04 00:02:49;;;;;;;10.60;6.75;;;5.40;99.90;;;;;;5056083;28;20040;-75
2021/12/04 00:05:16;;;;;;;8.30;6.75;;;5.50;99.90;;;;;;5055943;28;20020;-75
2021/12/04 00:07:42;;;;;;;8.40;7.07;;;5.50;99.90;;;;;;5038659;28;20112;-76
2021/12/04 00:10:09;;;;;;;8.13;7.28;;;5.50;99.90;;;;;;5075798;28;20532;-75
2021/12/04 00:12:35;;;;;;;9.77;7.18;;;5.40;99.90;;;;;;5075825;28;20028;-75
2021/12/04 00:15:02;;;;;;;7.90;7.10;;;5.50;99.90;;;;;;5075605;28;20024;-76
2021/12/04 00:17:28;;;;;;;8.82;6.72;;;5.60;99.90;;;;;;5057868;28;20142;-75
2021/12/04 00:19:54;;;;;;;7.97;6.43;;;5.50;99.90;;;;;;5075647;28;20063;-75
2021/12/04 00:22:20;;;;;;;8.05;6.72;;;5.50;99.90;;;;;;5075388;28;20098;-75
2021/12/04 00:24:46;;;;;;;7.75;6.57;;;5.50;99.90;;;;;;5073992;28;20021;-75
2021/12/04 00:27:12;;;;;;;7.90;6.88;;;5.40;99.90;;;;;;5055449;28;20385;-75
2021/12/04 00:29:37;;;;;;;10.52;6.57;;;5.50;99.90;;;;;;5037596;28;20487;-75
2021/12/04 00:32:15;;;;;;;6.78;6.07;;;5.50;99.90;;;;;;5055656;28;20021;-75
2021/12/04 00:34:45;;;;;;;7.40;6.57;;;5.50;99.90;;;;;;5037449;28;20502;-75
2021/12/04 00:50:37;;;;;;;15.13;7.55;;;5.70;99.90;;;;;;5054676;28;20061;-75
2021/12/04 00:53:03;;;;;;;7.30;6.30;;;5.50;99.90;;;;;;5055162;28;20067;-76
2021/12/04 00:55:29;;;;;;;7.63;6.82;;;5.50;99.90;;;;;;5037040;28;20094;-75
2021/12/04 00:57:55;;;;;;;8.07;6.65;;;5.50;99.90;;;;;;5054902;28;20041;-75
2021/12/04 01:00:21;;;;;;;7.25;6.55;;;5.50;99.90;;;;;;5054799;28;20083;-75
2021/12/04 01:02:46;;;;;;;8.02;6.80;;;5.50;99.90;;;;;;5036939;28;20040;-75
2021/12/04 01:05:12;;;;;;;8.38;7.40;;;5.70;99.90;;;;;;5054616;28;20054;-75
2021/12/04 01:07:38;;;;;;;7.40;6.70;;;5.70;99.90;;;;;;5055057;28;20040;-75
2021/12/04 01:10:06;;;;;;;13.73;7.90;;;5.90;99.90;;;;;;5074814;28;20051;-75
2021/12/04 01:12:33;;;;;;;7.70;6.90;;;5.50;99.90;;;;;;5074695;28;20031;-75
2021/12/04 01:14:59;;;;;;;7.95;7.15;;;5.70;99.90;;;;;;5074688;28;20362;-75
2021/12/04 01:17:25;;;;;;;9.35;8.00;;;5.70;99.90;;;;;;5074316;28;20123;-75
2021/12/04 01:19:51;;;;;;;7.95;6.88;;;5.70;99.90;;;;;;5074322;28;20116;-75
2021/12/04 01:22:20;;;;;;;8.35;7.55;;;5.70;99.90;;;;;;5074363;28;20392;-75
2021/12/04 01:24:46;;;;;;;10.38;7.30;;;5.80;99.90;;;;;;5073109;28;20473;-75
2021/12/04 01:27:14;;;;;;;7.65;6.85;;;5.80;99.90;;;;;;5036441;28;20033;-75
2021/12/04 01:29:41;;;;;;;7.25;6.50;;;5.90;99.90;;;;;;5054406;28;20033;-75
2021/12/04 01:32:08;;;;;;;10.15;7.13;;;5.90;99.90;;;;;;5054512;28;20025;-75
2021/12/04 01:34:35;;;;;;;6.82;6.20;;;6.00;99.90;;;;;;5036253;28;20029;-75
2021/12/04 01:37:02;;;;;;;7.30;6.07;;;6.10;99.90;;;;;;5054052;28;20043;-74
2021/12/04 01:39:28;;;;;;;7.60;6.55;;;6.00;99.90;;;;;;5054302;28;20036;-75
2021/12/04 01:41:54;;;;;;;8.18;7.22;;;6.00;99.90;;;;;;5054045;28;20029;-75
2021/12/04 01:44:20;;;;;;;7.28;6.57;;;6.10;99.90;;;;;;5054574;28;20086;-75
2021/12/04 01:46:46;;;;;;;7.50;6.72;;;6.10;99.90;;;;;;5053980;28;20017;-75
2021/12/04 01:49:12;;;;;;;7.65;6.55;;;5.90;99.90;;;;;;5035879;28;20044;-75
2021/12/04 01:51:38;;;;;;;7.97;6.80;;;6.00;99.90;;;;;;5053771;28;20492;-75
2021/12/04 01:54:04;;;;;;;8.10;6.85;;;6.00;99.90;;;;;;5035712;28;20397;-75
2021/12/04 01:56:33;;;;;;;7.45;6.75;;;5.90;99.90;;;;;;5053425;28;20021;-76
2021/12/04 01:59:00;;;;;;;8.60;6.93;;;5.80;99.90;;;;;;5053863;28;20037;-76
2021/12/04 02:01:25;;;;;;;8.32;7.00;;;6.00;99.90;;;;;;5053602;28;20108;-75
2021/12/04 02:03:51;;;;;;;8.98;7.35;;;5.90;99.90;;;;;;5053385;28;20113;-75
2021/12/04 02:06:17;;;;;;;9.43;7.70;;;6.00;99.90;;;;;;5053644;28;20381;-75
2021/12/04 02:08:43;;;;;;;10.55;7.20;;;5.90;99.90;;;;;;5062845;28;20082;-75
2021/12/04 02:11:10;;;;;;;9.20;6.97;;;6.00;99.90;;;;;;5073552;28;20036;-76
2021/12/04 02:13:36;;;;;;;8.70;7.13;;;5.90;99.90;;;;;;5073386;28;20021;-75
2021/12/04 02:16:12;;;;;;;17.83;8.40;;;5.80;99.90;;;;;;5073145;28;20107;-74
2021/12/04 02:18:38;;;;;;;11.50;7.82;;;5.90;99.90;;;;;;5073081;28;20094;-75
2021/12/04 02:21:04;;;;;;;13.00;8.30;;;5.80;99.90;;;;;;5072527;28;20016;-75
2021/12/04 02:23:30;;;;;;;11.95;8.18;;;5.90;99.90;;;;;;5072514;28;20032;-75
2021/12/04 02:25:55;;;;;;;9.70;7.95;;;6.10;99.90;;;;;;5061307;28;20029;-75
2021/12/04 02:28:21;;;;;;;7.97;7.18;;;6.00;99.90;;;;;;5052434;28;20024;-75
2021/12/04 02:30:48;;;;;;;10.93;8.43;;;5.90;99.90;;;;;;5052236;28;20033;-75
2021/12/04 02:33:16;;;;;;;12.10;8.00;;;6.00;99.90;;;;;;5052241;28;20102;-75
2021/12/04 02:35:54;;;;;;;9.30;7.88;;;5.90;99.90;;;;;;5034687;28;20465;-75
2021/12/04 02:38:23;;;;;;;11.65;7.90;;;6.00;99.90;;;;;;5052232;28;20496;-75
2021/12/04 02:40:50;;;;;;;11.10;8.27;;;6.00;99.90;;;;;;5052279;28;20057;-76
2021/12/04 02:43:15;;;;;;;10.02;7.97;;;6.10;99.90;;;;;;5056379;28;20060;-75
2021/12/04 02:45:43;;;;;;;10.02;7.93;;;6.10;99.90;;;;;;5054552;28;20614;-75
2021/12/04 02:48:09;;;;;;;9.57;7.45;;;6.20;99.90;;;;;;5052047;28;20033;-75
2021/12/04 02:50:35;;;;;;;11.13;7.75;;;6.20;99.90;;;;;;5052101;28;20092;-75
2021/12/04 02:53:01;;;;;;;10.68;7.97;;;6.20;99.90;;;;;;5052079;28;20043;-75
2021/12/04 02:55:27;;;;;;;10.52;7.40;;;6.20;99.90;;;;;;5034277;28;20386;-75
2021/12/04 02:57:53;;;;;;;10.70;6.90;;;6.20;99.90;;;;;;5051851;28;20160;-74
2021/12/04 03:00:21;;;;;;;12.43;7.07;;;6.20;99.90;;;;;;5051676;28;20029;-75
2021/12/04 03:02:47;;;;;;;11.20;8.00;;;6.20;99.90;;;;;;5034355;28;20072;-75
2021/12/04 03:05:14;;;;;;;13.73;8.00;;;6.20;99.90;;;;;;5051928;28;20041;-75
2021/12/04 03:07:40;;;;;;;9.80;6.78;;;6.20;99.90;;;;;;5051326;28;20037;-75
2021/12/04 03:10:08;;;;;;;9.75;7.00;;;6.30;99.90;;;;;;5071725;28;20020;-75
2021/12/04 03:12:35;;;;;;;9.55;7.72;;;6.20;99.90;;;;;;5071897;28;20062;-75
2021/12/04 03:15:01;;;;;;;11.05;7.07;;;6.10;99.90;;;;;;5071598;28;20033;-74
2021/12/04 03:17:27;;;;;;;8.52;6.47;;;6.20;99.90;;;;;;5071835;28;20036;-75
2021/12/04 03:19:53;;;;;;;11.10;6.78;;;6.10;99.90;;;;;;5033917;28;1092880;-75
2021/12/04 03:22:22;;;;;;;8.38;6.63;;;6.20;99.90;;;;;;5072782;28;20052;-75
2021/12/04 03:24:49;;;;;;;11.25;6.70;;;6.30;99.90;;;;;;5070803;28;20032;-75
2021/12/04 03:27:16;;;;;;;8.57;6.10;;;6.20;99.90;;;;;;5052582;28;20093;-75
2021/12/04 03:29:48;;;;;;;9.95;6.50;;;6.20;99.90;;;;;;5052264;28;20063;-75
2021/12/04 03:42:59;;;;;;;11.90;6.35;;;6.20;99.90;;;;;;5052519;28;20508;-76
2021/12/04 03:45:25;;;;;;;9.80;6.47;;;6.10;99.90;;;;;;5051957;28;20100;-76
2021/12/04 03:47:53;;;;;;;10.55;6.95;;;6.00;99.90;;;;;;5052482;28;20420;-76
2021/12/04 03:50:19;;;;;;;10.43;6.90;;;6.10;99.90;;;;;;5052087;28;20024;-75
2021/12/04 03:52:45;;;;;;;12.48;7.45;;;6.00;99.90;;;;;;5034585;28;20033;-75
2021/12/04 03:55:11;;;;;;;10.35;6.25;;;6.10;99.90;;;;;;5052223;28;20385;-75
2021/12/04 03:57:44;;;;;;;10.77;7.47;;;6.10;99.90;;;;;;5051858;28;20029;-75
2021/12/04 04:00:12;;;;;;;10.25;7.20;;;6.00;99.90;;;;;;5052322;28;20037;-75
2021/12/04 04:02:38;;;;;;;11.82;7.95;;;5.90;99.90;;;;;;5052438;28;20078;-75
2021/12/04 04:05:05;;;;;;;11.20;8.05;;;5.90;99.90;;;;;;5034441;28;20133;-75
2021/12/04 04:07:30;;;;;;;12.95;7.70;;;5.90;99.90;;;;;;5052248;28;20404;-75
2021/12/04 04:09:57;;;;;;;12.25;8.18;;;6.00;99.90;;;;;;5053563;28;20082;-75
2021/12/04 04:12:23;;;;;;;13.20;8.48;;;6.00;99.90;;;;;;5071931;28;20033;-75
2021/12/04 04:14:49;;;;;;;13.65;8.45;;;6.00;99.90;;;;;;5072214;28;20036;-74
2021/12/04 04:17:15;;;;;;;15.00;9.38;;;6.00;99.90;;;;;;5072209;28;20115;-75
2021/12/04 04:19:41;;;;;;;11.15;7.93;;;5.90;99.90;;;;;;5075724;28;20480;-75
2021/12/04 04:22:07;;;;;;;13.57;9.07;;;6.00;99.90;;;;;;5058142;28;20027;-75
2021/12/04 04:24:34;;;;;;;14.57;9.52;;;6.10;99.90;;;;;;5075754;28;20035;-75
2021/12/04 04:27:00;;;;;;;13.10;8.90;;;6.10;99.90;;;;;;5055248;28;20021;-75
2021/12/04 04:29:26;;;;;;;12.02;8.98;;;6.20;99.90;;;;;;5055699;28;20033;-75
2021/12/04 04:31:54;;;;;;;12.00;8.88;;;6.20;99.90;;;;;;5055697;28;20115;-75
2021/12/04 04:34:28;;;;;;;13.60;8.82;;;6.30;99.90;;;;;;5055459;28;20025;-75
2021/12/04 05:14:34;;;;;;;11.85;10.25;;;6.00;99.90;;;;;;5074860;28;20393;-75
2021/12/04 05:17:55;;;;;;;12.10;9.73;;;6.00;99.90;;;;;;5074512;28;20028;-74
2021/12/04 05:19:55;;;;;;;11.63;9.80;;;6.00;99.90;;;;;;5066179;28;20052;-75
2021/12/04 05:22:22;;;;;;;9.82;8.70;;;6.10;99.90;;;;;;5074374;28;20029;-75
2021/12/04 05:24:48;;;;;;;10.13;9.07;;;6.00;99.90;;;;;;5072519;28;20032;-75
2021/12/04 05:27:15;;;;;;;11.70;10.07;;;6.00;99.90;;;;;;5054467;28;20033;-75
2021/12/04 05:29:43;;;;;;;11.00;9.80;;;6.00;99.90;;;;;;5053447;28;20474;-75
2021/12/04 05:32:10;;;;;;;11.82;10.00;;;6.00;99.90;;;;;;5054533;28;20060;-75
2021/12/04 05:34:36;;;;;;;12.63;10.48;;;6.00;99.90;;;;;;5054337;28;20091;-75
2021/12/04 05:37:03;;;;;;;13.60;10.70;;;6.10;99.90;;;;;;5036178;28;20029;-75
2021/12/04 05:39:29;;;;;;;14.32;11.13;;;6.10;99.90;;;;;;5036126;28;20047;-75
2021/12/04 05:41:55;;;;;;;14.07;11.63;;;6.00;99.90;;;;;;5054293;28;20021;-75
2021/12/04 05:44:24;;;;;;;15.95;11.75;;;5.90;99.90;;;;;;5054186;28;20064;-75
2021/12/04 05:46:55;;;;;;;21.02;13.40;;;5.90;99.90;;;;;;5054062;28;20052;-76
2021/12/04 05:52:08;;;;;;;23.38;14.35;;;6.00;99.90;;;;;;5053542;28;20481;-75
2021/12/04 05:57:03;;;;;;;22.77;15.57;;;5.90;99.90;;;;;;5035795;28;20489;-75
2021/12/04 05:59:29;;;;;;;26.98;14.15;;;6.00;99.90;;;;;;5053903;28;20029;-75
2021/12/04 06:01:55;;;;;;;29.58;18.83;;;5.90;99.90;;;;;;5053943;28;20041;-75
2021/12/04 06:04:21;;;;;;;27.52;15.80;;;5.90;99.90;;;;;;5053807;28;20114;-75
2021/12/04 06:06:47;;;;;;;28.55;17.23;;;6.00;99.90;;;;;;5053833;28;20053;-75
2021/12/04 06:09:13;;;;;;;30.55;16.88;;;6.00;99.90;;;;;;5066616;28;20020;-75
2021/12/04 06:11:39;;;;;;;30.35;17.88;;;5.80;99.90;;;;;;5073486;28;20032;-75
2021/12/04 06:14:05;;;;;;;33.72;19.30;;;5.80;99.90;;;;;;5073726;28;20032;-76
2021/12/04 06:16:31;;;;;;;36.75;19.40;;;5.90;99.90;;;;;;5073548;28;20017;-75
2021/12/04 06:19:05;;;;;;;29.25;17.17;;;5.90;99.90;;;;;;5072122;28;20048;-76
2021/12/04 06:24:15;;;;;;;29.05;16.20;;;6.00;99.90;;;;;;5072929;28;20119;-75
2021/12/04 06:26:41;;;;;;;33.47;19.45;;;5.90;99.90;;;;;;5056039;28;20063;-75
2021/12/04 06:29:07;;;;;;;52.65;22.92;;;6.00;99.90;;;;;;5053279;28;20029;-76
2021/12/04 06:31:33;;;;;;;24.80;17.25;;;6.00;99.90;;;;;;5035370;28;20032;-75
2021/12/04 06:33:59;;;;;;;24.30;15.60;;;6.00;99.90;;;;;;5035199;28;20043;-75
2021/12/04 06:36:25;;;;;;;23.48;17.17;;;5.90;99.90;;;;;;5053113;28;20035;-75
2021/12/04 06:38:54;;;;;;;33.90;20.55;;;5.90;99.90;;;;;;5052760;28;20064;-75
2021/12/04 06:41:20;;;;;;;22.75;16.38;;;6.00;99.90;;;;;;5052845;28;20028;-76
2021/12/04 06:43:51;;;;;;;27.02;16.85;;;6.00;99.90;;;;;;5052934;28;20033;-75
2021/12/04 06:46:19;;;;;;;23.75;17.38;;;5.90;99.90;;;;;;5053224;28;20064;-75
2021/12/04 06:49:00;;;;;;;24.63;16.65;;;6.00;99.90;;;;;;5034970;28;20472;-75
2021/12/04 06:51:33;;;;;;;26.13;17.00;;;6.00;99.90;;;;;;5052862;28;20029;-75
2021/12/04 06:54:08;;;;;;;27.25;18.30;;;6.00;99.90;;;;;;5069722;28;20158;-74
2021/12/04 06:56:36;;;;;;;25.42;16.92;;;5.90;99.90;;;;;;5073054;28;20469;-75
2021/12/04 06:59:10;;;;;;;28.85;18.48;;;5.90;99.90;;;;;;5072971;28;20075;-75
2021/12/04 07:01:36;;;;;;;31.42;18.63;;;5.90;99.90;;;;;;5072835;28;20027;-75
2021/12/04 07:04:03;;;;;;;30.52;18.92;;;5.90;99.90;;;;;;5051018;28;20473;-75
2021/12/04 07:06:29;;;;;;;29.90;18.50;;;6.00;99.90;;;;;;5072255;28;20043;-75
2021/12/04 07:08:57;;;;;;;30.42;19.42;;;6.00;99.90;;;;;;5043598;28;20032;-75
2021/12/04 07:11:23;;;;;;;28.95;18.83;;;6.10;99.90;;;;;;5034743;28;20033;-75
2021/12/04 07:13:49;;;;;;;30.17;18.48;;;6.00;99.90;;;;;;5052624;28;20024;-75
2021/12/04 07:16:17;;;;;;;28.63;18.40;;;6.10;99.90;;;;;;5034145;28;20037;-75
2021/12/04 07:18:43;;;;;;;31.60;17.98;;;6.00;99.90;;;;;;5052200;28;20052;-75
2021/12/04 07:21:09;;;;;;;26.45;16.95;;;6.10;99.90;;;;;;5052401;28;20078;-74
2021/12/04 07:23:35;;;;;;;38.78;18.20;;;6.10;99.90;;;;;;5072478;28;20423;-74
2021/12/04 07:26:01;;;;;;;28.58;17.65;;;6.00;99.90;;;;;;5064096;28;20040;-75
2021/12/04 07:28:27;;;;;;;31.10;19.17;;;6.00;99.90;;;;;;5071959;28;20477;-74
2021/12/04 07:30:53;;;;;;;30.27;19.40;;;6.00;99.90;;;;;;5072166;28;20032;-74
2021/12/04 07:33:19;;;;;;;33.58;18.50;;;6.10;99.90;;;;;;5059422;28;20033;-76
2021/12/04 07:35:45;;;;;;;37.58;19.50;;;6.10;99.90;;;;;;5052324;28;20100;-75
2021/12/04 07:38:11;;;;;;;33.13;19.55;;;6.10;99.90;;;;;;5034529;28;20453;-75
2021/12/04 07:40:38;;;;;;;30.88;19.20;;;6.10;99.90;;;;;;5052324;28;20382;-75
2021/12/04 07:43:04;;;;;;;36.78;21.27;;;6.30;99.90;;;;;;5034543;28;20034;-75
2021/12/04 07:45:30;;;;;;;33.67;19.83;;;6.30;99.90;;;;;;5052268;28;20021;-75
2021/12/04 07:47:55;;;;;;;33.63;19.25;;;6.30;99.90;;;;;;5034538;28;20536;-74
2021/12/04 07:50:22;;;;;;;30.02;18.08;;;6.20;99.90;;;;;;5051713;28;20100;-75
2021/12/04 07:52:49;;;;;;;30.27;18.80;;;6.10;99.90;;;;;;5035576;28;20044;-75
2021/12/04 07:55:16;;;;;;;32.78;19.88;;;6.20;99.90;;;;;;5038122;28;20025;-75
2021/12/04 07:57:42;;;;;;;30.90;17.70;;;6.20;99.90;;;;;;5055942;28;20557;-75
2021/12/04 08:00:12;;;;;;;25.77;16.77;;;6.20;99.90;;;;;;5055974;28;20079;-75
2021/12/04 08:02:40;;;;;;;27.20;17.48;;;6.20;99.90;;;;;;5055571;28;20045;-74
2021/12/04 08:05:06;;;;;;;31.15;17.80;;;6.30;99.90;;;;;;5055638;28;20104;-75
2021/12/04 08:07:32;;;;;;;25.35;16.50;;;6.30;99.90;;;;;;5037826;28;20078;-75
2021/12/04 08:09:57;;;;;;;26.60;15.90;;;6.40;99.90;;;;;;5055349;28;20036;-75
2021/12/04 08:12:23;;;;;;;22.90;16.10;;;6.40;99.90;;;;;;5055813;28;20033;-75
2021/12/04 08:14:49;;;;;;;21.98;14.90;;;6.40;99.90;;;;;;5055709;28;20052;-75
2021/12/04 08:17:15;;;;;;;19.02;13.77;;;6.30;99.90;;;;;;5055665;28;20071;-74
2021/12/04 08:19:40;;;;;;;21.17;14.13;;;6.20;99.90;;;;;;5055480;28;20075;-75
2021/12/04 08:22:07;;;;;;;20.20;14.18;;;6.20;99.90;;;;;;5055495;28;20572;-76
2021/12/04 08:24:33;;;;;;;20.80;13.75;;;6.20;99.90;;;;;;5055411;28;20056;-75
2021/12/04 08:26:58;;;;;;;18.25;13.27;;;6.20;99.90;;;;;;5055368;28;20070;-75
2021/12/04 08:29:24;;;;;;;15.20;12.18;;;6.20;99.90;;;;;;5037564;28;20021;-74
2021/12/04 08:31:50;;;;;;;20.20;14.75;;;6.30;99.90;;;;;;5055146;28;20090;-75
2021/12/04 08:34:16;;;;;;;22.00;14.38;;;6.40;99.90;;;;;;5074925;28;20523;-74
2021/12/04 08:36:42;;;;;;;17.05;12.80;;;6.40;99.90;;;;;;5075230;28;20031;-75
2021/12/04 08:39:08;;;;;;;19.00;12.57;;;6.30;99.90;;;;;;5075293;28;20040;-76
2021/12/04 08:41:34;;;;;;;16.60;11.23;;;6.20;99.90;;;;;;5075004;28;20028;-75
2021/12/04 08:44:00;;;;;;;19.55;12.00;;;6.30;99.90;;;;;;5075131;28;20361;-75
2021/12/04 08:46:26;;;;;;;15.13;11.23;;;6.20;99.90;;;;;;5074830;28;20021;-75
2021/12/04 08:48:54;;;;;;;17.05;12.50;;;6.20;99.90;;;;;;5075030;28;20028;-75
2021/12/04 08:51:22;;;;;;;16.25;11.43;;;6.30;99.90;;;;;;5074809;28;20025;-75
2021/12/04 08:53:52;;;;;;;16.77;12.13;;;6.30;99.90;;;;;;5075123;28;20039;-75
2021/12/04 08:56:18;;;;;;;16.63;12.77;;;6.30;99.90;;;;;;5057095;28;20047;-74
2021/12/04 08:58:44;;;;;;;16.40;12.10;;;6.30;99.90;;;;;;5074908;28;20155;-75
2021/12/04 09:01:14;;;;;;;19.58;12.38;;;6.40;99.90;;;;;;5074393;28;20020;-75
2021/12/04 09:03:46;;;;;;;18.58;11.63;;;6.50;99.90;;;;;;5057307;28;20045;-75
2021/12/04 09:06:12;;;;;;;17.48;11.93;;;6.50;99.90;;;;;;5054589;28;20029;-74
2021/12/04 09:08:38;;;;;;;15.13;11.98;;;6.70;99.90;;;;;;5054560;28;20017;-74
2021/12/04 09:11:12;;;;;;;17.20;12.48;;;6.70;99.90;;;;;;5036518;28;20031;-75
2021/12/04 09:13:39;;;;;;;16.65;11.88;;;6.80;99.90;;;;;;5054492;28;20033;-74
2021/12/04 09:16:05;;;;;;;17.30;12.68;;;6.70;99.90;;;;;;5054500;28;20029;-75
2021/12/04 09:18:32;;;;;;;21.10;13.68;;;6.70;99.90;;;;;;5053762;28;20531;-75
2021/12/04 09:20:58;;;;;;;18.42;12.10;;;6.70;99.90;;;;;;5036613;28;20032;-75
2021/12/04 09:23:29;;;;;;;15.43;11.07;;;6.70;99.90;;;;;;5054337;28;20098;-75
2021/12/04 09:25:59;;;;;;;16.98;11.98;;;6.60;99.90;;;;;;5054358;28;20377;-75
2021/12/04 09:28:29;;;;;;;15.50;11.80;;;6.60;99.90;;;;;;5035188;28;20079;-75
2021/12/04 09:31:16;;;;;;;13.95;10.68;;;6.60;99.90;;;;;;5036312;28;20028;-74
2021/12/04 10:03:58;;;;;;;23.83;9.70;;;6.80;99.90;;;;;;5073098;28;20370;-75
2021/12/04 10:17:37;;;;;;;18.92;12.50;;;6.70;99.90;;;;;;5049905;28;20081;-75
2021/12/04 10:20:19;;;;;;;18.98;12.50;;;6.90;99.90;;;;;;5052652;28;20128;-74
2021/12/04 10:33:57;;;;;;;34.03;19.77;;;6.60;99.90;;;;;;5072708;28;20142;-75
2021/12/04 10:36:32;;;;;;;24.70;14.25;;;6.70;99.90;;;;;;5073158;28;20025;-75
2021/12/04 10:38:58;;;;;;;24.67;15.80;;;6.70;99.90;;;;;;5072950;28;20177;-75
2021/12/04 10:41:31;;;;;;;25.75;15.73;;;6.70;99.90;;;;;;5055280;28;20048;-74
2021/12/04 10:44:20;;;;;;;30.77;16.80;;;6.80;99.90;;;;;;5054642;28;20043;-74
2021/12/04 10:47:03;;;;;;;32.85;18.38;;;6.70;99.90;;;;;;5072964;28;20492;-75
2021/12/04 10:56:24;;;;;;;32.03;18.63;;;6.90;99.90;;;;;;5072851;28;20040;-75
2021/12/04 11:03:48;;;;;;;34.80;18.67;;;6.50;99.90;;;;;;5069321;28;20040;-76
2021/12/04 11:23:35;;;;;;;23.95;11.25;;;6.30;99.90;;;;;;5072544;28;20032;-74
2021/12/04 11:26:35;;;;;;;20.63;11.68;;;6.30;99.90;;;;;;5053083;28;20040;-74
2021/12/04 11:39:53;;;;;;;24.40;10.02;;;6.20;99.90;;;;;;5038049;28;20025;-74
2021/12/04 11:45:20;;;;;;;19.80;10.40;;;6.30;99.90;;;;;;5056214;28;20104;-74
2021/12/04 11:47:50;;;;;;;17.87;7.87;;;6.30;99.90;;;;;;5038407;28;20040;-74
2021/12/04 11:50:26;;;;;;;22.83;9.88;;;6.30;99.90;;;;;;5055608;28;20029;-74
2021/12/04 11:52:55;;;;;;;20.92;11.45;;;6.20;99.90;;;;;;5056064;28;20048;-74
2021/12/04 11:55:24;;;;;;;22.20;12.13;;;6.30;99.90;;;;;;5055788;28;20108;-74
2021/12/04 11:57:50;;;;;;;22.73;11.63;;;6.20;99.90;;;;;;5055696;28;20049;-74
2021/12/04 12:00:33;;;;;;;25.05;13.20;;;6.30;99.90;;;;;;5055829;28;20028;-74
2021/12/04 12:03:15;;;;;;;28.75;13.80;;;6.30;99.90;;;;;;5055495;28;20533;-74
2021/12/04 12:05:53;;;;;;;29.33;13.32;;;6.30;99.90;;;;;;5055927;28;20033;-74
2021/12/04 12:08:24;;;;;;;34.65;15.43;;;6.30;99.90;;;;;;5061755;28;20020;-73
2021/12/04 12:10:54;;;;;;;32.70;17.30;;;6.40;99.90;;;;;;5057637;28;20085;-74
2021/12/04 12:13:30;;;;;;;29.73;14.48;;;6.40;99.90;;;;;;5075852;28;20082;-73
2021/12/04 12:16:14;;;;;;;34.17;16.13;;;6.40;99.90;;;;;;5075466;28;20473;-74
2021/12/04 12:18:52;;;;;;;33.72;15.43;;;6.40;99.90;;;;;;5057811;28;20048;-74
2021/12/04 12:21:24;;;;;;;31.55;14.10;;;6.50;99.90;;;;;;5075488;28;20036;-74
2021/12/04 12:37:51;;;;;;;35.97;14.05;;;6.50;99.90;;;;;;5055080;28;20492;-74
2021/12/04 12:40:20;;;;;;;31.38;13.38;;;6.60;99.90;;;;;;5054564;28;20036;-74
2021/12/04 12:42:46;;;;;;;28.77;12.13;;;6.60;99.90;;;;;;5037331;28;20388;-74
2021/12/04 12:45:27;;;;;;;22.67;9.27;;;6.60;99.90;;;;;;5054872;28;20029;-74
2021/12/04 12:47:59;;;;;;;25.08;10.70;;;6.60;99.90;;;;;;5055119;28;20121;-74
2021/12/04 12:50:26;;;;;;;24.27;10.88;;;6.60;99.90;;;;;;5038579;28;20029;-74
2021/12/04 12:53:05;;;;;;;20.83;9.23;;;6.60;99.90;;;;;;5055202;28;20108;-74
2021/12/04 12:55:32;;;;;;;22.13;10.07;;;6.70;99.90;;;;;;5036863;28;20091;-74
2021/12/04 12:58:15;;;;;;;24.13;9.77;;;6.70;99.90;;;;;;5054492;28;20451;-74
2021/12/04 13:11:58;;;;;;;19.08;6.90;;;6.80;99.90;;;;;;5036648;28;20033;-74
2021/12/04 13:14:28;;;;;;;13.55;6.55;;;6.80;99.90;;;;;;5054675;28;20091;-74
2021/12/04 13:17:17;;;;;;;15.85;6.82;;;6.80;99.90;;;;;;5054248;28;20052;-74
2021/12/04 13:19:48;;;;;;;15.93;6.75;;;6.90;99.90;;;;;;5053837;28;20048;-73
2021/12/04 13:22:18;;;;;;;8.83;5.60;;;6.90;99.90;;;;;;5054439;28;20469;-74
2021/12/04 13:24:48;;;;;;;13.52;6.47;;;6.90;99.90;;;;;;5036092;28;20516;-74
2021/12/04 13:29:47;;;;;;;13.45;6.43;;;7.10;99.90;;;;;;5074317;28;20031;-74
2021/12/04 13:32:16;;;;;;;14.73;5.80;;;7.00;99.90;;;;;;5074738;28;20418;-74
2021/12/04 13:34:42;;;;;;;11.38;5.28;;;7.00;99.90;;;;;;5074225;28;20042;-73
2021/12/04 13:37:10;;;;;;;12.27;5.32;;;7.00;99.90;;;;;;5073889;28;20093;-74
2021/12/04 13:39:39;;;;;;;10.95;4.90;;;7.10;99.90;;;;;;5073465;28;20108;-74
2021/12/04 13:42:05;;;;;;;15.48;4.68;;;7.10;99.90;;;;;;5071799;28;20067;-74
2021/12/04 13:44:33;;;;;;;10.93;4.00;;;7.10;99.90;;;;;;5073751;28;20021;-74
2021/12/04 13:47:05;;;;;;;9.30;3.35;;;7.10;99.90;;;;;;5073905;28;20051;-74
2021/12/04 13:49:47;;;;;;;14.77;4.63;;;7.20;99.90;;;;;;5055329;28;20052;-73
2021/12/04 13:52:13;;;;;;;;;;;7.20;99.90;;;;;;5070463;28;20036;-74
2021/12/04 13:54:46;;;;;;;10.77;3.55;;;7.30;99.90;;;;;;5056299;28;20357;-74
2021/12/04 13:57:14;;;;;;;10.27;4.38;;;7.40;99.90;;;;;;5052957;28;20304;-74
2021/12/04 13:59:41;;;;;;;15.80;4.50;;;7.40;99.90;;;;;;5069460;28;20032;-74
2021/12/04 14:02:17;;;;;;;8.15;3.67;;;7.40;99.90;;;;;;5055795;28;20024;-74
2021/12/04 14:04:43;;;;;;;7.22;3.42;;;7.40;99.90;;;;;;5073724;28;20071;-74
2021/12/04 14:07:08;;;;;;;11.13;2.70;;;7.20;99.90;;;;;;5072982;28;20093;-74
2021/12/04 14:09:37;;;;;;;9.70;2.67;;;7.30;99.90;;;;;;5071732;28;20124;-74
2021/12/04 14:12:05;;;;;;;9.55;2.35;;;7.20;99.90;;;;;;5038388;28;20472;-74
2021/12/04 14:14:33;;;;;;;11.63;2.15;;;7.20;99.90;;;;;;5071992;28;20091;-74
2021/12/04 14:17:11;;;;;;;6.20;1.98;;;7.10;99.90;;;;;;5073096;28;20029;-74
2021/12/04 14:19:38;;;;;;;9.80;2.35;;;7.20;99.90;;;;;;5073011;28;20033;-74
2021/12/04 14:22:08;;;;;;;6.13;1.63;;;7.20;99.90;;;;;;5073168;28;20082;-73
2021/12/04 14:24:44;;;;;;;11.27;2.25;;;7.20;99.90;;;;;;5073281;28;20036;-74
2021/12/04 14:27:15;;;;;;;7.85;1.77;;;7.20;99.90;;;;;;5058377;28;20028;-74
2021/12/04 14:29:47;;;;;;;8.55;2.17;;;7.20;99.90;;;;;;5071170;28;20487;-73
2021/12/04 14:32:13;;;;;;;10.73;2.30;;;7.10;99.90;;;;;;5056710;28;20025;-74
2021/12/04 14:34:39;;;;;;;13.10;2.47;;;7.10;99.90;;;;;;5063558;28;20028;-74
2021/12/04 14:37:15;;;;;;;8.45;2.38;;;7.10;99.90;;;;;;5038171;28;20384;-74
2021/12/04 14:39:44;;;;;;;12.18;2.30;;;7.20;99.90;;;;;;5072751;28;20040;-74
2021/12/04 14:42:17;;;;;;;17.15;2.30;;;7.10;99.90;;;;;;5073275;28;20036;-74
2021/12/04 14:44:51;;;;;;;11.10;2.78;;;7.20;99.90;;;;;;5072982;28;20392;-74
2021/12/04 14:47:17;;;;;;;11.63;2.60;;;7.30;99.90;;;;;;5063935;28;20039;-74
2021/12/04 14:49:45;;;;;;;19.42;2.38;;;7.30;99.90;;;;;;5052764;28;20100;-74
2021/12/04 14:52:22;;;;;;;10.50;1.73;;;7.30;99.90;;;;;;5052338;28;20048;-74
2021/12/04 14:54:49;;;;;;;8.88;2.33;;;7.20;99.90;;;;;;5052774;28;20043;-74
2021/12/04 14:57:19;;;;;;;17.98;2.97;;;7.20;99.90;;;;;;5052865;28;20124;-74
2021/12/04 14:59:45;;;;;;;20.70;3.45;;;7.20;99.90;;;;;;5052613;28;20635;-74
2021/12/04 15:02:14;;;;;;;16.50;2.97;;;7.10;99.90;;;;;;5052905;28;20045;-74
2021/12/04 15:04:40;;;;;;;16.13;3.00;;;7.10;99.90;;;;;;5064393;28;20032;-74
2021/12/04 15:07:16;;;;;;;21.55;2.60;;;7.00;99.90;;;;;;5054240;28;20421;-74
2021/12/04 15:09:41;;;;;;;9.90;2.53;;;7.00;99.90;;;;;;5072396;28;20035;-74
2021/12/04 15:12:07;;;;;;;12.55;2.13;;;7.00;99.90;;;;;;5072699;28;20025;-74
2021/12/04 15:14:34;;;;;;;14.68;3.88;;;6.90;99.90;;;;;;5072647;28;20041;-74
2021/12/04 15:17:06;;;;;;;14.60;3.38;;;6.90;99.90;;;;;;5071297;28;20109;-74
2021/12/04 15:19:43;;;;;;;22.13;2.92;;;6.90;99.90;;;;;;5071685;28;20562;-74
2021/12/04 15:22:32;;;;;;;18.27;3.10;;;6.80;99.90;;;;;;5072700;28;20029;-74
2021/12/04 15:24:58;;;;;;;18.08;3.42;;;6.80;99.90;;;;;;5072455;28;20020;-74
2021/12/04 15:27:28;;;;;;;13.93;2.95;;;6.70;99.90;;;;;;5072624;28;20029;-74
2021/12/04 15:29:54;;;;;;;13.98;3.15;;;6.60;99.90;;;;;;5064531;28;20071;-75
2021/12/04 15:32:24;;;;;;;7.05;2.20;;;6.70;99.90;;;;;;5069416;28;20017;-74
2021/12/04 15:35:07;;;;;;;18.92;3.70;;;6.60;99.90;;;;;;5071578;28;20074;-74
2021/12/04 15:37:47;;;;;;;21.60;3.70;;;6.70;99.90;;;;;;5071706;28;20154;-74
2021/12/04 15:40:30;;;;;;;13.82;2.97;;;6.70;99.90;;;;;;5071809;28;20847;-74
2021/12/04 15:43:19;;;;;;;13.27;2.80;;;6.60;99.90;;;;;;5071961;28;20077;-74
2021/12/04 15:47:02;;;;;;;15.57;3.92;;;6.60;99.90;;;;;;5071909;28;20111;-74
2021/12/04 15:54:35;;;;;;;10.95;3.03;;;6.40;99.90;;;;;;5070190;28;20408;-74
2021/12/04 15:57:09;;;;;;;11.55;3.03;;;6.40;99.90;;;;;;5070888;28;20051;-74
2021/12/04 15:59:35;;;;;;;20.90;3.30;;;6.40;99.90;;;;;;5071388;28;20025;-74
2021/12/04 16:02:13;;;;;;;17.73;3.63;;;6.30;99.90;;;;;;5053073;28;20066;-74
2021/12/04 16:04:39;;;;;;;16.33;4.05;;;6.20;99.90;;;;;;5041487;28;20087;-75
2021/12/04 16:07:06;;;;;;;12.05;3.47;;;6.30;99.90;;;;;;5034054;28;20485;-74
2021/12/04 16:09:38;;;;;;;19.40;3.38;;;6.20;99.90;;;;;;5067315;28;20044;-74
2021/12/04 16:12:10;;;;;;;20.33;3.65;;;6.10;99.90;;;;;;5071635;28;20473;-74